sensor_id;sensor_type;location;lat;lon;timestamp;temperature;humidity
7654;DHT22;3869;48.406;10.774;2023-08-21T00:01:12;21.90;99.90
7654;DHT22;3869;48.406;10.774;2023-08-21T00:03:40;21.90;99.90
7654;DHT22;3869;48.406;10.774;2023-08-21T00:06:09;21.80;99.90
7654;DHT22;3869;48.406;10.774;2023-08-21T00:08:37;21.80;99.90
7654;DHT22;3869;48.406;10.774;2023-08-21T00:11:05;21.80;99.90
7654;DHT22;3869;48.406;10.774;2023-08-21T00:13:33;21.70;99.90
7654;DHT22;3869;48.406;10.774;2023-08-21T00:16:02;21.70;99.90
7654;DHT22;3869;48.406;10.774;2023-08-21T00:18:30;21.70;99.90
7654;DHT22;3869;48.406;10.774;2023-08-21T00:20:58;21.60;99.90
7654;DHT22;3869;48.406;10.774;2023-08-21T00:23:26;21.60;99.90
7654;DHT22;3869;48.406;10.774;2023-08-21T00:25:54;21.50;99.90
7654;DHT22;3869;48.406;10.774;2023-08-21T00:28:22;21.50;99.90
7654;DHT22;3869;48.406;10.774;2023-08-21T00:30:51;21.50;99.90
7654;DHT22;3869;48.406;10.774;2023-08-21T00:33:20;21.40;99.90
7654;DHT22;3869;48.406;10.774;2023-08-21T00:35:48;21.40;99.90
7654;DHT22;3869;48.406;10.774;2023-08-21T00:38:16;21.40;99.90
7654;DHT22;3869;48.406;10.774;2023-08-21T00:40:45;21.40;99.90
7654;DHT22;3869;48.406;10.774;2023-08-21T00:43:13;21.40;99.90
7654;DHT22;3869;48.406;10.774;2023-08-21T00:45:42;21.40;99.90
7654;DHT22;3869;48.406;10.774;2023-08-21T00:48:11;21.30;99.90
7654;DHT22;3869;48.406;10.774;2023-08-21T00:50:41;21.20;99.90
7654;DHT22;3869;48.406;10.774;2023-08-21T00:53:10;21.20;99.90
7654;DHT22;3869;48.406;10.774;2023-08-21T00:55:38;21.30;99.90
7654;DHT22;3869;48.406;10.774;2023-08-21T00:58:09;21.30;99.90
7654;DHT22;3869;48.406;10.774;2023-08-21T01:00:38;21.20;99.90
7654;DHT22;3869;48.406;10.774;2023-08-21T01:03:06;21.20;99.90
7654;DHT22;3869;48.406;10.774;2023-08-21T01:05:35;21.20;99.90
7654;DHT22;3869;48.406;10.774;2023-08-21T01:08:10;21.20;99.90
7654;DHT22;3869;48.406;10.774;2023-08-21T01:10:48;21.20;99.90
7654;DHT22;3869;48.406;10.774;2023-08-21T01:13:24;21.10;99.90
7654;DHT22;3869;48.406;10.774;2023-08-21T01:15:57;21.10;99.90
7654;DHT22;3869;48.406;10.774;2023-08-21T01:18:26;21.00;99.90
7654;DHT22;3869;48.406;10.774;2023-08-21T01:20:56;20.90;99.90
7654;DHT22;3869;48.406;10.774;2023-08-21T01:23:33;20.90;99.90
7654;DHT22;3869;48.406;10.774;2023-08-21T01:26:01;20.90;99.90
7654;DHT22;3869;48.406;10.774;2023-08-21T01:28:29;20.90;99.90
7654;DHT22;3869;48.406;10.774;2023-08-21T01:31:03;20.90;99.90
7654;DHT22;3869;48.406;10.774;2023-08-21T01:33:37;20.90;99.90
7654;DHT22;3869;48.406;10.774;2023-08-21T01:36:07;20.80;99.90
7654;DHT22;3869;48.406;10.774;2023-08-21T01:38:37;20.80;99.90
7654;DHT22;3869;48.406;10.774;2023-08-21T01:41:05;20.60;99.90
7654;DHT22;3869;48.406;10.774;2023-08-21T01:43:33;20.60;99.90
7654;DHT22;3869;48.406;10.774;2023-08-21T01:46:01;20.60;99.90
7654;DHT22;3869;48.406;10.774;2023-08-21T01:48:30;20.60;99.90
7654;DHT22;3869;48.406;10.774;2023-08-21T01:51:00;20.50;99.90
7654;DHT22;3869;48.406;10.774;2023-08-21T01:53:29;20.50;99.90
7654;DHT22;3869;48.406;10.774;2023-08-21T01:55:58;20.40;99.90
7654;DHT22;3869;48.406;10.774;2023-08-21T01:58:26;20.40;99.90
7654;DHT22;3869;48.406;10.774;2023-08-21T02:00:54;20.50;99.90
7654;DHT22;3869;48.406;10.774;2023-08-21T02:03:25;20.40;99.90
7654;DHT22;3869;48.406;10.774;2023-08-21T02:05:55;20.40;99.90
7654;DHT22;3869;48.406;10.774;2023-08-21T02:08:30;20.40;99.90
7654;DHT22;3869;48.406;10.774;2023-08-21T02:11:00;20.40;99.90
7654;DHT22;3869;48.406;10.774;2023-08-21T02:13:28;20.40;99.90
7654;DHT22;3869;48.406;10.774;2023-08-21T02:15:56;20.40;99.90
7654;DHT22;3869;48.406;10.774;2023-08-21T02:18:24;20.30;99.90
7654;DHT22;3869;48.406;10.774;2023-08-21T02:20:52;20.30;99.90
7654;DHT22;3869;48.406;10.774;2023-08-21T02:23:20;20.30;99.90
7654;DHT22;3869;48.406;10.774;2023-08-21T02:25:48;20.30;99.90
7654;DHT22;3869;48.406;10.774;2023-08-21T02:28:18;20.30;99.90
7654;DHT22;3869;48.406;10.774;2023-08-21T02:30:46;20.30;99.90
7654;DHT22;3869;48.406;10.774;2023-08-21T02:33:14;20.20;99.90
7654;DHT22;3869;48.406;10.774;2023-08-21T02:35:42;20.20;99.90
7654;DHT22;3869;48.406;10.774;2023-08-21T02:38:10;20.20;99.90
7654;DHT22;3869;48.406;10.774;2023-08-21T02:40:38;20.20;99.90
7654;DHT22;3869;48.406;10.774;2023-08-21T02:43:06;20.20;99.90
7654;DHT22;3869;48.406;10.774;2023-08-21T02:45:35;20.20;99.90
7654;DHT22;3869;48.406;10.774;2023-08-21T02:48:04;20.10;99.90
7654;DHT22;3869;48.406;10.774;2023-08-21T02:50:32;20.10;99.90
7654;DHT22;3869;48.406;10.774;2023-08-21T02:53:00;20.10;99.90
7654;DHT22;3869;48.406;10.774;2023-08-21T02:55:28;20.10;99.90
7654;DHT22;3869;48.406;10.774;2023-08-21T02:57:56;20.10;99.90
7654;DHT22;3869;48.406;10.774;2023-08-21T03:00:25;20.20;99.90
7654;DHT22;3869;48.406;10.774;2023-08-21T03:02:54;20.20;99.90
7654;DHT22;3869;48.406;10.774;2023-08-21T03:05:22;20.20;99.90
7654;DHT22;3869;48.406;10.774;2023-08-21T03:07:50;20.20;99.90
7654;DHT22;3869;48.406;10.774;2023-08-21T03:10:19;20.20;99.90
7654;DHT22;3869;48.406;10.774;2023-08-21T03:12:47;20.10;99.90
7654;DHT22;3869;48.406;10.774;2023-08-21T03:15:15;20.00;99.90
7654;DHT22;3869;48.406;10.774;2023-08-21T03:17:43;19.90;99.90
7654;DHT22;3869;48.406;10.774;2023-08-21T03:20:13;20.00;99.90
7654;DHT22;3869;48.406;10.774;2023-08-21T03:22:41;20.00;99.90
7654;DHT22;3869;48.406;10.774;2023-08-21T03:25:09;20.10;99.90
7654;DHT22;3869;48.406;10.774;2023-08-21T03:27:37;20.10;99.90
7654;DHT22;3869;48.406;10.774;2023-08-21T03:30:07;20.10;99.90
7654;DHT22;3869;48.406;10.774;2023-08-21T03:32:36;19.90;99.90
7654;DHT22;3869;48.406;10.774;2023-08-21T03:35:05;19.80;99.90
7654;DHT22;3869;48.406;10.774;2023-08-21T03:37:35;19.80;99.90
7654;DHT22;3869;48.406;10.774;2023-08-21T03:40:04;19.70;99.90
7654;DHT22;3869;48.406;10.774;2023-08-21T03:42:32;19.70;99.90
7654;DHT22;3869;48.406;10.774;2023-08-21T03:45:01;19.70;99.90
7654;DHT22;3869;48.406;10.774;2023-08-21T03:47:31;19.70;99.90
7654;DHT22;3869;48.406;10.774;2023-08-21T03:49:59;19.80;99.90
7654;DHT22;3869;48.406;10.774;2023-08-21T03:52:27;19.80;99.90
7654;DHT22;3869;48.406;10.774;2023-08-21T03:54:56;19.80;99.90
7654;DHT22;3869;48.406;10.774;2023-08-21T03:57:24;19.70;99.90
7654;DHT22;3869;48.406;10.774;2023-08-21T03:59:52;19.70;99.90
7654;DHT22;3869;48.406;10.774;2023-08-21T04:02:20;19.60;99.90
7654;DHT22;3869;48.406;10.774;2023-08-21T04:04:52;19.50;99.90
7654;DHT22;3869;48.406;10.774;2023-08-21T04:07:20;19.50;99.90
7654;DHT22;3869;48.406;10.774;2023-08-21T04:09:48;19.40;99.90
7654;DHT22;3869;48.406;10.774;2023-08-21T04:12:17;19.40;99.90
7654;DHT22;3869;48.406;10.774;2023-08-21T04:14:45;19.40;99.90
7654;DHT22;3869;48.406;10.774;2023-08-21T04:17:13;19.40;99.90
7654;DHT22;3869;48.406;10.774;2023-08-21T04:19:41;19.50;99.90
7654;DHT22;3869;48.406;10.774;2023-08-21T04:22:10;19.50;99.90
7654;DHT22;3869;48.406;10.774;2023-08-21T04:24:38;19.60;99.90
7654;DHT22;3869;48.406;10.774;2023-08-21T04:27:06;19.60;99.90
7654;DHT22;3869;48.406;10.774;2023-08-21T04:29:37;19.50;99.90
7654;DHT22;3869;48.406;10.774;2023-08-21T04:32:06;19.50;99.90
7654;DHT22;3869;48.406;10.774;2023-08-21T04:34:34;19.50;99.90
7654;DHT22;3869;48.406;10.774;2023-08-21T04:37:02;19.50;99.90
7654;DHT22;3869;48.406;10.774;2023-08-21T04:39:31;19.50;99.90
7654;DHT22;3869;48.406;10.774;2023-08-21T04:41:59;19.60;99.90
7654;DHT22;3869;48.406;10.774;2023-08-21T04:44:27;19.60;99.90
7654;DHT22;3869;48.406;10.774;2023-08-21T04:46:56;19.60;99.90
7654;DHT22;3869;48.406;10.774;2023-08-21T04:49:24;19.60;99.90
7654;DHT22;3869;48.406;10.774;2023-08-21T04:51:52;19.70;99.90
7654;DHT22;3869;48.406;10.774;2023-08-21T04:54:20;19.60;99.90
7654;DHT22;3869;48.406;10.774;2023-08-21T04:56:48;19.50;99.90
7654;DHT22;3869;48.406;10.774;2023-08-21T04:59:16;19.50;99.90
7654;DHT22;3869;48.406;10.774;2023-08-21T05:01:44;19.40;99.90
7654;DHT22;3869;48.406;10.774;2023-08-21T05:04:14;19.50;99.90
7654;DHT22;3869;48.406;10.774;2023-08-21T05:06:42;19.50;99.90
7654;DHT22;3869;48.406;10.774;2023-08-21T05:09:10;19.60;99.90
7654;DHT22;3869;48.406;10.774;2023-08-21T05:11:38;19.60;99.90
7654;DHT22;3869;48.406;10.774;2023-08-21T05:14:06;19.60;99.90
7654;DHT22;3869;48.406;10.774;2023-08-21T05:16:35;19.70;99.90
7654;DHT22;3869;48.406;10.774;2023-08-21T05:19:03;19.70;99.90
7654;DHT22;3869;48.406;10.774;2023-08-21T05:21:32;19.80;99.90
7654;DHT22;3869;48.406;10.774;2023-08-21T05:24:00;19.80;99.90
7654;DHT22;3869;48.406;10.774;2023-08-21T05:26:28;19.90;99.90
7654;DHT22;3869;48.406;10.774;2023-08-21T05:28:56;19.90;99.90
7654;DHT22;3869;48.406;10.774;2023-08-21T05:31:24;19.90;99.90
7654;DHT22;3869;48.406;10.774;2023-08-21T05:33:52;19.90;99.90
7654;DHT22;3869;48.406;10.774;2023-08-21T05:36:20;19.90;99.90
7654;DHT22;3869;48.406;10.774;2023-08-21T05:38:50;20.00;99.90
7654;DHT22;3869;48.406;10.774;2023-08-21T05:41:18;20.00;99.90
7654;DHT22;3869;48.406;10.774;2023-08-21T05:43:46;20.10;99.90
7654;DHT22;3869;48.406;10.774;2023-08-21T05:46:15;20.10;99.90
7654;DHT22;3869;48.406;10.774;2023-08-21T05:48:43;20.20;99.90
7654;DHT22;3869;48.406;10.774;2023-08-21T05:51:12;20.30;99.90
7654;DHT22;3869;48.406;10.774;2023-08-21T05:53:40;20.40;99.90
7654;DHT22;3869;48.406;10.774;2023-08-21T05:56:09;20.50;99.90
7654;DHT22;3869;48.406;10.774;2023-08-21T05:58:37;20.60;99.90
7654;DHT22;3869;48.406;10.774;2023-08-21T06:01:06;20.70;99.90
7654;DHT22;3869;48.406;10.774;2023-08-21T06:03:35;20.70;99.90
7654;DHT22;3869;48.406;10.774;2023-08-21T06:06:03;20.80;99.90
7654;DHT22;3869;48.406;10.774;2023-08-21T06:08:31;20.90;99.90
7654;DHT22;3869;48.406;10.774;2023-08-21T06:10:59;21.00;99.90
7654;DHT22;3869;48.406;10.774;2023-08-21T06:13:29;21.10;99.90
7654;DHT22;3869;48.406;10.774;2023-08-21T06:15:57;21.20;99.90
7654;DHT22;3869;48.406;10.774;2023-08-21T06:18:25;21.20;99.90
7654;DHT22;3869;48.406;10.774;2023-08-21T06:20:54;21.30;99.90
7654;DHT22;3869;48.406;10.774;2023-08-21T06:23:23;21.40;99.90
7654;DHT22;3869;48.406;10.774;2023-08-21T06:25:51;21.50;99.90
7654;DHT22;3869;48.406;10.774;2023-08-21T06:28:19;21.50;99.90
7654;DHT22;3869;48.406;10.774;2023-08-21T06:30:55;21.60;99.90
7654;DHT22;3869;48.406;10.774;2023-08-21T06:33:23;21.70;99.90
7654;DHT22;3869;48.406;10.774;2023-08-21T06:35:52;21.70;99.90
7654;DHT22;3869;48.406;10.774;2023-08-21T06:38:20;21.80;99.90
7654;DHT22;3869;48.406;10.774;2023-08-21T06:40:48;21.90;99.90
7654;DHT22;3869;48.406;10.774;2023-08-21T06:43:16;21.90;99.90
7654;DHT22;3869;48.406;10.774;2023-08-21T06:45:44;22.00;99.90
7654;DHT22;3869;48.406;10.774;2023-08-21T06:48:14;22.20;99.90
7654;DHT22;3869;48.406;10.774;2023-08-21T06:50:42;22.30;99.90
7654;DHT22;3869;48.406;10.774;2023-08-21T06:53:10;22.40;99.90
7654;DHT22;3869;48.406;10.774;2023-08-21T06:55:38;22.40;99.90
7654;DHT22;3869;48.406;10.774;2023-08-21T06:58:06;22.50;99.90
7654;DHT22;3869;48.406;10.774;2023-08-21T07:00:34;22.60;99.90
7654;DHT22;3869;48.406;10.774;2023-08-21T07:03:02;22.70;99.90
7654;DHT22;3869;48.406;10.774;2023-08-21T07:05:36;22.80;99.90
7654;DHT22;3869;48.406;10.774;2023-08-21T07:08:05;22.90;99.90
7654;DHT22;3869;48.406;10.774;2023-08-21T07:10:35;22.90;99.90
7654;DHT22;3869;48.406;10.774;2023-08-21T07:13:04;23.00;99.90
7654;DHT22;3869;48.406;10.774;2023-08-21T07:15:33;23.10;99.90
7654;DHT22;3869;48.406;10.774;2023-08-21T07:18:01;23.30;99.90
7654;DHT22;3869;48.406;10.774;2023-08-21T07:20:29;23.30;99.90
7654;DHT22;3869;48.406;10.774;2023-08-21T07:22:59;23.40;99.90
7654;DHT22;3869;48.406;10.774;2023-08-21T07:25:27;23.40;99.90
7654;DHT22;3869;48.406;10.774;2023-08-21T07:27:55;23.40;99.90
7654;DHT22;3869;48.406;10.774;2023-08-21T07:30:23;23.50;99.90
7654;DHT22;3869;48.406;10.774;2023-08-21T07:32:53;23.60;99.90
7654;DHT22;3869;48.406;10.774;2023-08-21T07:35:21;23.70;99.90
7654;DHT22;3869;48.406;10.774;2023-08-21T07:37:49;23.80;99.90
7654;DHT22;3869;48.406;10.774;2023-08-21T07:40:19;23.80;99.90
7654;DHT22;3869;48.406;10.774;2023-08-21T07:42:47;23.90;99.90
7654;DHT22;3869;48.406;10.774;2023-08-21T07:45:15;24.00;99.90
7654;DHT22;3869;48.406;10.774;2023-08-21T07:47:43;24.00;99.90
7654;DHT22;3869;48.406;10.774;2023-08-21T07:50:17;24.10;99.90
7654;DHT22;3869;48.406;10.774;2023-08-21T07:52:45;24.10;99.90
7654;DHT22;3869;48.406;10.774;2023-08-21T07:55:13;24.10;99.90
7654;DHT22;3869;48.406;10.774;2023-08-21T07:57:43;24.20;99.90
7654;DHT22;3869;48.406;10.774;2023-08-21T08:00:12;24.30;99.90
7654;DHT22;3869;48.406;10.774;2023-08-21T08:02:41;24.30;99.90
7654;DHT22;3869;48.406;10.774;2023-08-21T08:05:10;24.40;99.90
7654;DHT22;3869;48.406;10.774;2023-08-21T08:07:38;24.50;99.90
7654;DHT22;3869;48.406;10.774;2023-08-21T08:10:06;24.50;99.90
7654;DHT22;3869;48.406;10.774;2023-08-21T08:12:34;24.60;99.90
7654;DHT22;3869;48.406;10.774;2023-08-21T08:15:05;24.60;99.90
7654;DHT22;3869;48.406;10.774;2023-08-21T08:17:33;24.70;99.90
7654;DHT22;3869;48.406;10.774;2023-08-21T08:20:01;24.80;99.90
7654;DHT22;3869;48.406;10.774;2023-08-21T08:22:29;24.90;99.90
7654;DHT22;3869;48.406;10.774;2023-08-21T08:24:57;25.00;99.90
7654;DHT22;3869;48.406;10.774;2023-08-21T08:27:25;25.10;99.90
7654;DHT22;3869;48.406;10.774;2023-08-21T08:29:53;25.20;99.90
7654;DHT22;3869;48.406;10.774;2023-08-21T08:32:23;25.30;99.90
7654;DHT22;3869;48.406;10.774;2023-08-21T08:34:52;25.30;99.90
7654;DHT22;3869;48.406;10.774;2023-08-21T08:37:20;25.30;99.90
7654;DHT22;3869;48.406;10.774;2023-08-21T08:39:48;25.40;99.90
7654;DHT22;3869;48.406;10.774;2023-08-21T08:42:16;25.40;99.90
7654;DHT22;3869;48.406;10.774;2023-08-21T08:44:44;25.50;99.90
7654;DHT22;3869;48.406;10.774;2023-08-21T08:47:12;25.50;99.90
7654;DHT22;3869;48.406;10.774;2023-08-21T08:49:42;25.60;99.90
7654;DHT22;3869;48.406;10.774;2023-08-21T08:52:11;25.70;99.90
7654;DHT22;3869;48.406;10.774;2023-08-21T08:54:39;25.70;99.90
7654;DHT22;3869;48.406;10.774;2023-08-21T08:57:07;25.80;99.90
7654;DHT22;3869;48.406;10.774;2023-08-21T08:59:36;25.90;99.90
7654;DHT22;3869;48.406;10.774;2023-08-21T09:02:04;25.90;99.90
7654;DHT22;3869;48.406;10.774;2023-08-21T09:04:32;26.00;99.90
7654;DHT22;3869;48.406;10.774;2023-08-21T09:07:08;26.10;99.90
7654;DHT22;3869;48.406;10.774;2023-08-21T09:09:39;26.20;99.90
7654;DHT22;3869;48.406;10.774;2023-08-21T09:12:10;26.30;99.90
7654;DHT22;3869;48.406;10.774;2023-08-21T09:14:39;26.30;99.90
7654;DHT22;3869;48.406;10.774;2023-08-21T09:17:08;26.30;99.90
7654;DHT22;3869;48.406;10.774;2023-08-21T09:19:36;26.30;99.90
7654;DHT22;3869;48.406;10.774;2023-08-21T09:22:10;26.30;99.90
7654;DHT22;3869;48.406;10.774;2023-08-21T09:24:40;26.40;99.90
7654;DHT22;3869;48.406;10.774;2023-08-21T09:27:15;26.40;99.90
7654;DHT22;3869;48.406;10.774;2023-08-21T09:29:44;26.50;99.90
7654;DHT22;3869;48.406;10.774;2023-08-21T09:32:13;26.60;99.90
7654;DHT22;3869;48.406;10.774;2023-08-21T09:34:42;26.60;99.90
7654;DHT22;3869;48.406;10.774;2023-08-21T09:37:13;26.70;99.90
7654;DHT22;3869;48.406;10.774;2023-08-21T09:39:41;26.70;99.90
7654;DHT22;3869;48.406;10.774;2023-08-21T09:42:09;26.80;99.90
7654;DHT22;3869;48.406;10.774;2023-08-21T09:44:38;26.80;99.90
7654;DHT22;3869;48.406;10.774;2023-08-21T09:47:08;26.90;99.90
7654;DHT22;3869;48.406;10.774;2023-08-21T09:49:38;27.00;99.90
7654;DHT22;3869;48.406;10.774;2023-08-21T09:52:07;27.00;99.90
7654;DHT22;3869;48.406;10.774;2023-08-21T09:54:39;27.10;99.90
7654;DHT22;3869;48.406;10.774;2023-08-21T09:57:07;27.20;99.90
7654;DHT22;3869;48.406;10.774;2023-08-21T09:59:36;27.20;99.90
7654;DHT22;3869;48.406;10.774;2023-08-21T10:02:07;27.30;99.90
7654;DHT22;3869;48.406;10.774;2023-08-21T10:04:39;27.40;99.90
7654;DHT22;3869;48.406;10.774;2023-08-21T10:07:09;27.40;99.90
7654;DHT22;3869;48.406;10.774;2023-08-21T10:09:40;27.40;99.90
7654;DHT22;3869;48.406;10.774;2023-08-21T10:12:09;27.50;99.90
7654;DHT22;3869;48.406;10.774;2023-08-21T10:14:38;27.40;99.90
7654;DHT22;3869;48.406;10.774;2023-08-21T10:17:07;27.50;99.90
7654;DHT22;3869;48.406;10.774;2023-08-21T10:19:35;27.60;99.90
7654;DHT22;3869;48.406;10.774;2023-08-21T10:22:03;27.60;99.90
7654;DHT22;3869;48.406;10.774;2023-08-21T10:24:35;27.70;99.90
7654;DHT22;3869;48.406;10.774;2023-08-21T10:27:06;27.70;99.90
7654;DHT22;3869;48.406;10.774;2023-08-21T10:29:34;27.80;99.90
7654;DHT22;3869;48.406;10.774;2023-08-21T10:32:04;27.90;99.90
7654;DHT22;3869;48.406;10.774;2023-08-21T10:34:35;28.00;99.90
7654;DHT22;3869;48.406;10.774;2023-08-21T10:37:06;28.10;99.90
7654;DHT22;3869;48.406;10.774;2023-08-21T10:39:37;28.20;99.90
7654;DHT22;3869;48.406;10.774;2023-08-21T10:42:09;28.30;99.90
7654;DHT22;3869;48.406;10.774;2023-08-21T10:44:49;28.40;99.90
7654;DHT22;3869;48.406;10.774;2023-08-21T10:47:20;28.40;99.90
7654;DHT22;3869;48.406;10.774;2023-08-21T10:49:51;28.50;99.90
7654;DHT22;3869;48.406;10.774;2023-08-21T10:52:23;28.60;99.90
7654;DHT22;3869;48.406;10.774;2023-08-21T10:54:51;28.60;99.90
7654;DHT22;3869;48.406;10.774;2023-08-21T10:57:22;28.70;99.90
7654;DHT22;3869;48.406;10.774;2023-08-21T10:59:55;28.80;99.90
7654;DHT22;3869;48.406;10.774;2023-08-21T11:02:24;28.90;99.90
7654;DHT22;3869;48.406;10.774;2023-08-21T11:04:53;29.00;99.90
7654;DHT22;3869;48.406;10.774;2023-08-21T11:07:21;29.00;99.90
7654;DHT22;3869;48.406;10.774;2023-08-21T11:09:50;29.10;99.90
7654;DHT22;3869;48.406;10.774;2023-08-21T11:12:22;29.10;99.90
7654;DHT22;3869;48.406;10.774;2023-08-21T11:14:50;29.10;99.90
7654;DHT22;3869;48.406;10.774;2023-08-21T11:17:18;29.10;99.90
7654;DHT22;3869;48.406;10.774;2023-08-21T11:19:47;29.00;99.90
7654;DHT22;3869;48.406;10.774;2023-08-21T11:22:16;29.10;99.90
7654;DHT22;3869;48.406;10.774;2023-08-21T11:24:46;29.10;99.90
7654;DHT22;3869;48.406;10.774;2023-08-21T11:27:15;29.20;99.90
7654;DHT22;3869;48.406;10.774;2023-08-21T11:29:46;29.10;99.90
7654;DHT22;3869;48.406;10.774;2023-08-21T11:32:15;29.10;99.90
7654;DHT22;3869;48.406;10.774;2023-08-21T11:34:48;29.20;99.90
7654;DHT22;3869;48.406;10.774;2023-08-21T11:37:17;29.20;99.90
7654;DHT22;3869;48.406;10.774;2023-08-21T11:39:48;29.20;99.90
7654;DHT22;3869;48.406;10.774;2023-08-21T11:42:16;29.20;99.90
7654;DHT22;3869;48.406;10.774;2023-08-21T11:44:47;29.20;99.90
7654;DHT22;3869;48.406;10.774;2023-08-21T11:47:16;29.20;99.90
7654;DHT22;3869;48.406;10.774;2023-08-21T11:49:46;29.20;99.90
7654;DHT22;3869;48.406;10.774;2023-08-21T11:52:18;29.10;99.90
7654;DHT22;3869;48.406;10.774;2023-08-21T11:54:48;29.20;99.90
7654;DHT22;3869;48.406;10.774;2023-08-21T11:57:17;29.30;99.90
7654;DHT22;3869;48.406;10.774;2023-08-21T11:59:51;29.50;99.90
7654;DHT22;3869;48.406;10.774;2023-08-21T12:02:23;29.60;99.90
7654;DHT22;3869;48.406;10.774;2023-08-21T12:04:52;29.60;99.90
7654;DHT22;3869;48.406;10.774;2023-08-21T12:07:21;29.60;99.90
7654;DHT22;3869;48.406;10.774;2023-08-21T12:09:49;29.70;99.90
7654;DHT22;3869;48.406;10.774;2023-08-21T12:12:17;29.80;99.90
7654;DHT22;3869;48.406;10.774;2023-08-21T12:14:46;30.00;99.90
7654;DHT22;3869;48.406;10.774;2023-08-21T12:17:15;30.00;99.90
7654;DHT22;3869;48.406;10.774;2023-08-21T12:19:43;30.00;99.90
7654;DHT22;3869;48.406;10.774;2023-08-21T12:22:11;30.20;99.90
7654;DHT22;3869;48.406;10.774;2023-08-21T12:24:40;30.20;99.90
7654;DHT22;3869;48.406;10.774;2023-08-21T12:27:08;30.30;99.90
7654;DHT22;3869;48.406;10.774;2023-08-21T12:29:36;30.30;99.90
7654;DHT22;3869;48.406;10.774;2023-08-21T12:32:04;30.40;99.90
7654;DHT22;3869;48.406;10.774;2023-08-21T12:34:34;30.40;99.90
7654;DHT22;3869;48.406;10.774;2023-08-21T12:37:02;30.40;99.90
7654;DHT22;3869;48.406;10.774;2023-08-21T12:39:30;30.50;99.90
7654;DHT22;3869;48.406;10.774;2023-08-21T12:41:58;30.60;99.90
7654;DHT22;3869;48.406;10.774;2023-08-21T12:44:26;30.70;99.90
7654;DHT22;3869;48.406;10.774;2023-08-21T12:46:54;30.80;99.90
7654;DHT22;3869;48.406;10.774;2023-08-21T12:49:22;30.90;99.90
7654;DHT22;3869;48.406;10.774;2023-08-21T12:51:52;30.90;99.90
7654;DHT22;3869;48.406;10.774;2023-08-21T12:54:20;31.10;99.90
7654;DHT22;3869;48.406;10.774;2023-08-21T12:56:48;31.20;99.90
7654;DHT22;3869;48.406;10.774;2023-08-21T12:59:16;31.10;99.90
7654;DHT22;3869;48.406;10.774;2023-08-21T13:01:46;31.20;99.90
7654;DHT22;3869;48.406;10.774;2023-08-21T13:04:14;31.30;99.90
7654;DHT22;3869;48.406;10.774;2023-08-21T13:06:42;31.30;99.90
7654;DHT22;3869;48.406;10.774;2023-08-21T13:09:11;31.30;99.90
7654;DHT22;3869;48.406;10.774;2023-08-21T13:11:40;31.50;99.90
7654;DHT22;3869;48.406;10.774;2023-08-21T13:14:08;31.50;99.90
7654;DHT22;3869;48.406;10.774;2023-08-21T13:16:36;31.60;99.90
7654;DHT22;3869;48.406;10.774;2023-08-21T13:19:04;31.60;99.90
7654;DHT22;3869;48.406;10.774;2023-08-21T13:21:32;31.70;99.90
7654;DHT22;3869;48.406;10.774;2023-08-21T13:24:00;31.80;99.90
7654;DHT22;3869;48.406;10.774;2023-08-21T13:26:32;31.90;99.90
7654;DHT22;3869;48.406;10.774;2023-08-21T13:29:00;31.90;99.90
7654;DHT22;3869;48.406;10.774;2023-08-21T13:31:28;31.80;99.50
7654;DHT22;3869;48.406;10.774;2023-08-21T13:33:56;31.70;99.00
7654;DHT22;3869;48.406;10.774;2023-08-21T13:36:24;31.70;99.50
7654;DHT22;3869;48.406;10.774;2023-08-21T13:38:55;31.90;99.80
7654;DHT22;3869;48.406;10.774;2023-08-21T13:41:24;31.90;99.90
7654;DHT22;3869;48.406;10.774;2023-08-21T13:43:53;32.00;99.90
7654;DHT22;3869;48.406;10.774;2023-08-21T13:46:21;32.00;99.90
7654;DHT22;3869;48.406;10.774;2023-08-21T13:48:49;31.90;99.70
7654;DHT22;3869;48.406;10.774;2023-08-21T13:51:17;31.90;99.70
7654;DHT22;3869;48.406;10.774;2023-08-21T13:53:48;31.90;99.40
7654;DHT22;3869;48.406;10.774;2023-08-21T13:56:16;31.80;99.60
7654;DHT22;3869;48.406;10.774;2023-08-21T13:58:44;31.80;99.50
7654;DHT22;3869;48.406;10.774;2023-08-21T14:01:13;31.80;99.50
7654;DHT22;3869;48.406;10.774;2023-08-21T14:03:41;31.80;99.50
7654;DHT22;3869;48.406;10.774;2023-08-21T14:06:10;31.80;99.20
7654;DHT22;3869;48.406;10.774;2023-08-21T14:08:39;31.80;98.50
7654;DHT22;3869;48.406;10.774;2023-08-21T14:11:07;31.80;98.30
7654;DHT22;3869;48.406;10.774;2023-08-21T14:13:35;31.80;97.60
7654;DHT22;3869;48.406;10.774;2023-08-21T14:16:03;31.70;96.10
7654;DHT22;3869;48.406;10.774;2023-08-21T14:18:33;31.60;95.90
7654;DHT22;3869;48.406;10.774;2023-08-21T14:21:01;31.70;96.30
7654;DHT22;3869;48.406;10.774;2023-08-21T14:23:30;31.70;96.00
7654;DHT22;3869;48.406;10.774;2023-08-21T14:26:00;31.70;96.60
7654;DHT22;3869;48.406;10.774;2023-08-21T14:28:28;31.70;97.50
7654;DHT22;3869;48.406;10.774;2023-08-21T14:30:56;31.80;97.40
7654;DHT22;3869;48.406;10.774;2023-08-21T14:33:25;31.80;97.30
7654;DHT22;3869;48.406;10.774;2023-08-21T14:35:54;31.80;97.70
7654;DHT22;3869;48.406;10.774;2023-08-21T14:38:23;31.70;97.30
7654;DHT22;3869;48.406;10.774;2023-08-21T14:40:52;31.60;96.20
7654;DHT22;3869;48.406;10.774;2023-08-21T14:43:20;31.70;96.10
7654;DHT22;3869;48.406;10.774;2023-08-21T14:45:49;31.60;96.20
7654;DHT22;3869;48.406;10.774;2023-08-21T14:48:17;31.60;96.70
7654;DHT22;3869;48.406;10.774;2023-08-21T14:50:45;31.70;97.00
7654;DHT22;3869;48.406;10.774;2023-08-21T14:53:15;31.60;96.50
7654;DHT22;3869;48.406;10.774;2023-08-21T14:55:43;31.60;97.10
7654;DHT22;3869;48.406;10.774;2023-08-21T14:58:11;31.60;97.50
7654;DHT22;3869;48.406;10.774;2023-08-21T15:00:39;31.60;97.20
7654;DHT22;3869;48.406;10.774;2023-08-21T15:03:07;31.60;97.50
7654;DHT22;3869;48.406;10.774;2023-08-21T15:05:35;31.60;97.90
7654;DHT22;3869;48.406;10.774;2023-08-21T15:08:03;31.50;98.30
7654;DHT22;3869;48.406;10.774;2023-08-21T15:10:33;31.50;98.40
7654;DHT22;3869;48.406;10.774;2023-08-21T15:13:01;31.50;98.20
7654;DHT22;3869;48.406;10.774;2023-08-21T15:15:29;31.40;98.90
7654;DHT22;3869;48.406;10.774;2023-08-21T15:17:57;31.40;97.80
7654;DHT22;3869;48.406;10.774;2023-08-21T15:20:25;31.30;98.00
7654;DHT22;3869;48.406;10.774;2023-08-21T15:22:53;31.30;98.00
7654;DHT22;3869;48.406;10.774;2023-08-21T15:25:21;31.30;98.00
7654;DHT22;3869;48.406;10.774;2023-08-21T15:27:50;31.30;98.10
7654;DHT22;3869;48.406;10.774;2023-08-21T15:30:19;31.20;97.60
7654;DHT22;3869;48.406;10.774;2023-08-21T15:32:47;31.20;97.60
7654;DHT22;3869;48.406;10.774;2023-08-21T15:35:15;31.20;97.20
7654;DHT22;3869;48.406;10.774;2023-08-21T15:37:43;31.20;97.50
7654;DHT22;3869;48.406;10.774;2023-08-21T15:40:12;31.20;98.30
7654;DHT22;3869;48.406;10.774;2023-08-21T15:42:40;31.20;98.10
7654;DHT22;3869;48.406;10.774;2023-08-21T15:45:10;31.10;97.40
7654;DHT22;3869;48.406;10.774;2023-08-21T15:47:38;31.10;97.90
7654;DHT22;3869;48.406;10.774;2023-08-21T15:50:15;31.10;97.80
7654;DHT22;3869;48.406;10.774;2023-08-21T15:52:43;31.00;97.80
7654;DHT22;3869;48.406;10.774;2023-08-21T15:55:11;31.00;97.90